Time;durP1;ratioP1;P1;durP2;ratioP2;P2;SDS_P1;SDS_P2;PMS_P1;PMS_P2;Temp;Humidity;BMP_temperature;BMP_pressure;BME280_temperature;BME280_humidity;BME280_pressure;Samples;Min_cycle;Max_cycle;Signal;HPM_P1;HPM_P2
2021/04/15 00:02:09;;;;;;;11.25;2.58;;;9.20;82.90;;;;;;5098724;28;20406;-74
2021/04/15 00:04:35;;;;;;;11.90;2.40;;;9.20;83.00;;;;;;5110288;28;20491;-75
2021/04/15 00:07:02;;;;;;;9.50;2.10;;;9.20;83.20;;;;;;5095661;28;20496;-75
2021/04/15 00:09:28;;;;;;;10.70;2.10;;;9.20;83.40;;;;;;5107275;28;20506;-75
2021/04/15 00:11:54;;;;;;;10.93;2.00;;;9.20;83.40;;;;;;5104271;28;20760;-75
2021/04/15 00:14:23;;;;;;;11.05;2.40;;;9.30;83.30;;;;;;5110125;28;20424;-74
2021/04/15 00:16:50;;;;;;;10.57;2.20;;;9.30;83.80;;;;;;5107337;28;20412;-74
2021/04/15 00:19:19;;;;;;;9.57;1.92;;;9.30;83.60;;;;;;5078368;28;20417;-75
2021/04/15 00:21:46;;;;;;;12.18;2.10;;;9.30;83.30;;;;;;5087794;28;20411;-75
2021/04/15 00:24:12;;;;;;;9.32;2.05;;;9.30;83.50;;;;;;5079773;28;20421;-74
2021/04/15 00:26:39;;;;;;;11.63;2.40;;;9.30;83.50;;;;;;5101862;28;20404;-74
2021/04/15 00:29:05;;;;;;;9.67;2.13;;;9.30;83.50;;;;;;5091297;28;20965;-75
2021/04/15 00:31:33;;;;;;;12.25;2.20;;;9.20;83.40;;;;;;5098525;28;20437;-74
2021/04/15 00:33:59;;;;;;;10.93;2.35;;;9.20;83.60;;;;;;5093484;28;20859;-74
2021/04/15 00:36:26;;;;;;;8.30;2.30;;;9.20;83.90;;;;;;5107404;28;20443;-75
2021/04/15 00:38:54;;;;;;;9.68;2.20;;;9.20;84.40;;;;;;5101648;28;20777;-74
2021/04/15 00:41:22;;;;;;;7.82;1.90;;;9.20;83.90;;;;;;5108623;28;20420;-75
2021/04/15 00:43:49;;;;;;;8.50;2.13;;;9.20;83.90;;;;;;5111558;28;20408;-75
2021/04/15 00:46:46;;;;;;;10.20;2.10;;;9.10;83.80;;;;;;5099048;28;20816;-75
2021/04/15 00:49:16;;;;;;;10.02;2.33;;;9.10;84.70;;;;;;5096128;28;20437;-75
2021/04/15 00:51:46;;;;;;;10.57;2.37;;;9.10;84.00;;;;;;5101618;28;20435;-75
2021/04/15 00:54:16;;;;;;;8.55;2.10;;;9.10;84.00;;;;;;5090383;28;20999;-74
2021/04/15 00:56:43;;;;;;;7.65;1.90;;;9.00;84.30;;;;;;5094403;28;20428;-75
2021/04/15 00:59:09;;;;;;;5.07;1.80;;;9.00;84.00;;;;;;5089458;28;20409;-74
2021/04/15 01:01:36;;;;;;;10.57;2.17;;;9.00;84.10;;;;;;5106306;28;20420;-75
2021/04/15 01:04:04;;;;;;;8.27;1.90;;;9.00;83.90;;;;;;5074142;28;20417;-76
2021/04/15 01:06:30;;;;;;;7.38;2.10;;;9.00;83.80;;;;;;5099329;28;20420;-74
2021/04/15 01:08:59;;;;;;;7.30;2.22;;;8.90;83.90;;;;;;5107560;28;20502;-75
2021/04/15 01:11:48;;;;;;;9.70;2.58;;;8.90;84.10;;;;;;5101219;28;20442;-74
2021/04/15 01:14:25;;;;;;;8.63;2.30;;;8.90;84.30;;;;;;5102130;28;20420;-74
2021/04/15 01:16:57;;;;;;;10.02;2.47;;;8.90;84.60;;;;;;5105457;28;20417;-75
2021/04/15 01:20:07;;;;;;;8.73;2.55;;;8.80;84.60;;;;;;5090500;28;20920;-75
2021/04/15 01:22:54;;;;;;;8.32;2.50;;;8.80;85.00;;;;;;5037155;28;20430;-75
2021/04/15 01:25:39;;;;;;;9.63;2.50;;;8.80;85.20;;;;;;5071713;28;20968;-75
2021/04/15 01:28:16;;;;;;;9.02;2.70;;;8.80;85.40;;;;;;5101279;28;20411;-74
2021/04/15 01:30:49;;;;;;;8.93;2.63;;;8.80;85.70;;;;;;5093521;28;20409;-75
2021/04/15 01:33:20;;;;;;;7.95;2.30;;;8.80;86.10;;;;;;5072099;28;20421;-76
2021/04/15 01:35:52;;;;;;;7.50;2.17;;;8.80;86.20;;;;;;5091868;28;20416;-75
2021/04/15 01:38:25;;;;;;;8.57;2.50;;;8.80;86.40;;;;;;5083423;28;20408;-74
2021/04/15 01:40:57;;;;;;;8.00;2.58;;;8.80;86.80;;;;;;5085596;28;20454;-75
2021/04/15 01:43:32;;;;;;;8.98;2.85;;;8.80;87.50;;;;;;5095996;28;20420;-76
2021/04/15 01:46:00;;;;;;;7.40;2.10;;;8.80;89.30;;;;;;5108179;28;20469;-75
2021/04/15 01:48:30;;;;;;;8.82;1.90;;;8.80;90.30;;;;;;5103057;28;20427;-74
2021/04/15 01:51:01;;;;;;;7.32;1.70;;;8.90;90.90;;;;;;5102962;28;20421;-75
2021/04/15 01:53:30;;;;;;;7.50;1.80;;;8.90;91.10;;;;;;5089572;28;20820;-75
2021/04/15 01:56:06;;;;;;;5.18;1.55;;;8.90;91.70;;;;;;5090244;28;20416;-75
2021/04/15 01:58:36;;;;;;;4.75;1.50;;;8.90;92.10;;;;;;5105132;28;20472;-75
2021/04/15 02:01:07;;;;;;;6.97;1.50;;;8.90;91.80;;;;;;5089382;28;20406;-75
2021/04/15 02:03:36;;;;;;;7.00;1.50;;;9.00;91.80;;;;;;5096046;28;20404;-76
2021/04/15 02:06:07;;;;;;;7.20;1.50;;;9.00;91.90;;;;;;5091456;28;20423;-76
2021/04/15 02:08:37;;;;;;;7.63;1.55;;;9.00;91.80;;;;;;5101485;28;20802;-76
2021/04/15 02:11:07;;;;;;;4.95;1.70;;;9.00;92.00;;;;;;5099646;28;20418;-75
2021/04/15 02:13:37;;;;;;;8.25;1.83;;;9.00;92.00;;;;;;5099645;28;20942;-76
2021/04/15 02:16:07;;;;;;;6.27;1.90;;;9.00;92.40;;;;;;5087864;28;20931;-75
2021/04/15 02:18:37;;;;;;;8.20;1.80;;;9.00;92.30;;;;;;5096398;28;20421;-76
2021/04/15 02:21:10;;;;;;;5.22;1.83;;;9.00;92.30;;;;;;5104025;28;20412;-74
2021/04/15 02:23:42;;;;;;;5.22;1.80;;;9.00;92.30;;;;;;5102188;28;20872;-75
2021/04/15 02:26:14;;;;;;;6.90;1.70;;;9.00;92.50;;;;;;5109656;28;20495;-75
2021/04/15 02:28:46;;;;;;;6.35;1.70;;;9.00;92.60;;;;;;5102841;28;20450;-75
2021/04/15 02:31:17;;;;;;;8.98;1.80;;;9.00;92.40;;;;;;5085385;28;20467;-74
2021/04/15 02:33:49;;;;;;;8.50;1.90;;;9.00;92.30;;;;;;5093769;28;20798;-74
2021/04/15 02:36:17;;;;;;;4.85;1.77;;;9.10;92.20;;;;;;5084738;28;20413;-74
2021/04/15 02:38:51;;;;;;;6.18;1.80;;;9.00;92.20;;;;;;5100561;28;20416;-74
2021/04/15 02:41:22;;;;;;;8.23;2.00;;;9.00;92.20;;;;;;5106085;28;20436;-75
2021/04/15 02:43:53;;;;;;;6.97;2.00;;;9.00;92.20;;;;;;5083626;28;20458;-74
2021/04/15 02:46:26;;;;;;;8.63;2.17;;;9.00;92.30;;;;;;5098259;28;20417;-74
2021/04/15 02:48:57;;;;;;;5.93;2.30;;;9.10;92.70;;;;;;5070690;28;20434;-74
2021/04/15 02:51:28;;;;;;;9.55;2.60;;;9.10;92.20;;;;;;5094857;28;20469;-75
2021/04/15 02:54:01;;;;;;;7.97;2.60;;;9.10;92.20;;;;;;5102153;28;20520;-75
2021/04/15 02:56:44;;;;;;;9.38;2.67;;;9.10;92.30;;;;;;5098220;28;20923;-75
2021/04/15 02:59:14;;;;;;;8.68;2.72;;;9.10;92.40;;;;;;5098131;28;20424;-76
2021/04/15 03:01:46;;;;;;;9.40;2.58;;;9.00;92.50;;;;;;5108241;28;20699;-75
2021/04/15 03:04:16;;;;;;;9.00;3.00;;;9.00;92.80;;;;;;5099141;28;20896;-74
2021/04/15 03:06:45;;;;;;;11.48;3.00;;;9.00;92.50;;;;;;5101761;28;20845;-74
2021/04/15 03:09:14;;;;;;;9.95;3.20;;;9.00;92.50;;;;;;5089204;28;20414;-74
2021/04/15 03:11:46;;;;;;;7.97;2.95;;;9.00;92.70;;;;;;5104229;28;20415;-75
2021/04/15 03:14:20;;;;;;;10.13;3.17;;;9.00;92.40;;;;;;5112733;28;20426;-75
2021/04/15 03:16:50;;;;;;;9.32;3.05;;;8.90;92.70;;;;;;5111911;28;20430;-74
2021/04/15 03:19:20;;;;;;;10.45;3.50;;;8.90;92.40;;;;;;5102828;28;20490;-74
2021/04/15 03:21:56;;;;;;;10.50;3.50;;;8.90;92.20;;;;;;5098737;28;20479;-74
2021/04/15 03:24:26;;;;;;;10.07;3.40;;;8.80;92.20;;;;;;5075511;28;20416;-74
2021/04/15 03:26:55;;;;;;;10.47;3.30;;;8.80;91.90;;;;;;5087037;28;20416;-74
2021/04/15 03:29:24;;;;;;;12.95;3.38;;;8.70;92.00;;;;;;5098783;28;20420;-75
2021/04/15 03:32:05;;;;;;;11.10;3.03;;;8.70;92.20;;;;;;5101143;28;20971;-74
2021/04/15 03:34:39;;;;;;;6.97;2.78;;;8.70;92.10;;;;;;5102130;28;20428;-73
2021/04/15 03:37:08;;;;;;;8.95;2.83;;;8.60;92.20;;;;;;5106792;28;20419;-74
2021/04/15 03:39:36;;;;;;;11.30;2.95;;;8.60;92.20;;;;;;5108213;28;20763;-74
2021/04/15 03:42:10;;;;;;;11.00;3.15;;;8.60;92.10;;;;;;5091438;28;20410;-75
2021/04/15 03:44:41;;;;;;;10.30;3.10;;;8.60;92.20;;;;;;5097602;28;20469;-74
2021/04/15 03:47:14;;;;;;;10.05;3.10;;;8.50;92.10;;;;;;5101768;28;20426;-75
2021/04/15 03:49:45;;;;;;;11.90;2.80;;;8.50;92.40;;;;;;5109448;28;20408;-75
2021/04/15 03:52:17;;;;;;;8.60;2.80;;;8.50;92.30;;;;;;5083752;28;21296;-75
2021/04/15 03:54:47;;;;;;;12.40;3.08;;;8.40;92.40;;;;;;5091833;28;20430;-75
2021/04/15 03:57:18;;;;;;;8.15;2.65;;;8.40;92.60;;;;;;5079102;28;20508;-75
2021/04/15 03:59:49;;;;;;;12.88;2.83;;;8.40;92.50;;;;;;5092280;28;20414;-74
2021/04/15 04:02:21;;;;;;;7.97;2.70;;;8.30;92.30;;;;;;5080518;28;20482;-74
2021/04/15 04:04:51;;;;;;;12.97;3.00;;;8.30;92.70;;;;;;5096576;28;20416;-75
2021/04/15 04:07:24;;;;;;;9.23;2.83;;;8.30;92.60;;;;;;5077553;28;20428;-75
2021/04/15 04:09:55;;;;;;;9.45;2.75;;;8.20;92.60;;;;;;5105683;28;20430;-74
2021/04/15 04:12:29;;;;;;;8.80;2.77;;;8.20;92.40;;;;;;5095048;28;20464;-73
2021/04/15 04:15:02;;;;;;;15.32;3.75;;;8.20;92.40;;;;;;5102772;28;20734;-75
2021/04/15 04:17:37;;;;;;;19.98;8.85;;;8.20;92.50;;;;;;5094128;28;20412;-75
2021/04/15 04:20:05;;;;;;;11.95;5.10;;;8.20;92.40;;;;;;5077309;28;20457;-75
2021/04/15 04:22:39;;;;;;;9.45;3.63;;;8.10;92.60;;;;;;5095030;28;20434;-74
2021/04/15 04:25:12;;;;;;;13.00;3.13;;;8.10;92.70;;;;;;5091055;28;20496;-75
2021/04/15 04:27:44;;;;;;;12.40;3.20;;;8.10;92.90;;;;;;5091071;28;20839;-76
2021/04/15 04:30:14;;;;;;;8.40;2.95;;;8.10;92.90;;;;;;5090981;28;20508;-75
2021/04/15 04:32:43;;;;;;;10.70;3.17;;;8.00;92.90;;;;;;5091457;28;20410;-75
2021/04/15 04:35:13;;;;;;;11.10;3.22;;;8.00;93.20;;;;;;5096025;28;20509;-74
2021/04/15 04:37:44;;;;;;;11.55;2.97;;;8.00;92.90;;;;;;5096910;28;20422;-74
2021/04/15 04:40:17;;;;;;;9.65;2.80;;;8.00;93.10;;;;;;5111910;28;20400;-74
2021/04/15 04:42:46;;;;;;;7.85;2.83;;;8.00;93.10;;;;;;5103757;28;20442;-74
2021/04/15 04:45:16;;;;;;;8.00;3.10;;;7.90;93.10;;;;;;5076049;28;20486;-75
2021/04/15 04:47:47;;;;;;;9.93;2.92;;;7.90;93.00;;;;;;5095332;28;20420;-75
2021/04/15 04:50:27;;;;;;;9.80;2.90;;;7.90;92.90;;;;;;5080104;28;20914;-74
2021/04/15 04:52:58;;;;;;;8.07;2.70;;;7.90;92.80;;;;;;5091288;28;20508;-75
2021/04/15 04:55:37;;;;;;;12.32;3.35;;;7.90;92.60;;;;;;5072692;28;20417;-75
2021/04/15 04:58:10;;;;;;;9.50;3.15;;;7.90;92.50;;;;;;5077323;28;20492;-74
2021/04/15 05:00:41;;;;;;;8.57;2.95;;;7.80;92.90;;;;;;5090838;28;20470;-75
2021/04/15 05:03:08;;;;;;;12.93;3.30;;;7.80;92.80;;;;;;5090716;28;20952;-72
2021/04/15 05:05:35;;;;;;;10.47;3.10;;;7.80;92.80;;;;;;5095977;28;20418;-73
2021/04/15 05:08:06;;;;;;;10.18;3.17;;;7.80;92.50;;;;;;5105862;28;20415;-74
2021/04/15 05:10:34;;;;;;;13.70;3.15;;;7.80;92.70;;;;;;5101624;28;20422;-73
2021/04/15 05:13:12;;;;;;;8.60;3.20;;;7.80;92.90;;;;;;5097667;28;20852;-73
2021/04/15 05:15:40;;;;;;;16.02;3.83;;;7.80;93.10;;;;;;5111127;28;20408;-74
2021/04/15 05:18:10;;;;;;;9.52;3.00;;;7.80;92.90;;;;;;5098118;28;20410;-73
2021/04/15 05:20:37;;;;;;;11.35;3.20;;;7.80;92.90;;;;;;5092557;28;20410;-73
2021/04/15 05:23:12;;;;;;;14.18;4.07;;;7.80;93.20;;;;;;5094607;28;20428;-74
2021/04/15 05:25:43;;;;;;;13.15;3.67;;;7.80;93.10;;;;;;5079277;28;20442;-74
2021/04/15 05:28:14;;;;;;;11.13;3.70;;;7.80;93.10;;;;;;5099302;28;20404;-74
2021/04/15 05:30:44;;;;;;;10.70;3.50;;;7.80;93.10;;;;;;5096562;28;20413;-74
2021/04/15 05:33:16;;;;;;;13.45;3.42;;;7.80;93.40;;;;;;5103793;28;20823;-72
2021/04/15 05:35:45;;;;;;;11.90;3.38;;;7.80;93.60;;;;;;5097314;28;20411;-75
2021/04/15 05:38:14;;;;;;;9.15;3.45;;;7.80;93.60;;;;;;5099443;28;20801;-76
2021/04/15 05:40:41;;;;;;;17.48;4.18;;;7.80;93.50;;;;;;5078446;28;20544;-74
2021/04/15 05:43:22;;;;;;;9.25;3.75;;;7.80;93.60;;;;;;5097298;28;20411;-76
2021/04/15 05:45:57;;;;;;;12.13;3.80;;;7.80;93.60;;;;;;5099123;28;20424;-75
2021/04/15 05:48:27;;;;;;;10.55;3.60;;;7.80;93.90;;;;;;5095976;28;20449;-73
2021/04/15 05:50:57;;;;;;;11.88;3.65;;;7.80;94.10;;;;;;5095419;28;20478;-73
2021/04/15 05:53:29;;;;;;;11.57;3.80;;;7.80;93.90;;;;;;5095385;28;20428;-77
2021/04/15 05:56:01;;;;;;;14.88;4.30;;;7.80;94.10;;;;;;5101159;28;20413;-76
2021/04/15 05:58:34;;;;;;;12.02;4.20;;;7.80;94.00;;;;;;5085897;28;20441;-74
2021/04/15 06:01:08;;;;;;;13.73;4.63;;;7.80;93.80;;;;;;5098727;28;20534;-75
2021/04/15 06:03:42;;;;;;;10.13;3.40;;;7.90;93.90;;;;;;5100769;28;20790;-75
2021/04/15 06:06:12;;;;;;;21.42;9.50;;;7.90;93.90;;;;;;5097353;28;20852;-73
2021/04/15 06:08:42;;;;;;;14.90;4.80;;;7.90;94.00;;;;;;5093580;28;20480;-72
2021/04/15 06:11:31;;;;;;;11.00;3.87;;;7.90;94.00;;;;;;5099006;28;20409;-74
2021/04/15 06:14:03;;;;;;;12.07;3.70;;;8.00;94.80;;;;;;5081308;28;20431;-74
2021/04/15 06:16:34;;;;;;;9.18;3.50;;;8.00;94.90;;;;;;5093552;28;20873;-74
2021/04/15 06:19:06;;;;;;;10.32;3.67;;;8.10;95.10;;;;;;5102110;28;20402;-73
2021/04/15 06:21:37;;;;;;;10.48;3.50;;;8.10;95.20;;;;;;5097103;28;20420;-72
2021/04/15 06:24:07;;;;;;;10.68;3.40;;;8.20;95.10;;;;;;5089736;28;20409;-77
2021/04/15 06:26:39;;;;;;;8.73;3.53;;;8.30;94.90;;;;;;5084940;28;20421;-75
2021/04/15 06:29:10;;;;;;;10.73;3.60;;;8.30;94.70;;;;;;5079653;28;20414;-74
2021/04/15 06:31:40;;;;;;;12.75;3.38;;;8.30;94.50;;;;;;5074130;28;20425;-74
2021/04/15 06:34:09;;;;;;;10.40;3.13;;;8.20;94.20;;;;;;5106965;28;20431;-75
2021/04/15 06:36:39;;;;;;;11.25;3.58;;;8.20;94.10;;;;;;5099800;28;20406;-74
2021/04/15 06:39:15;;;;;;;11.95;3.50;;;8.20;94.30;;;;;;5103525;28;20903;-74
2021/04/15 06:42:11;;;;;;;10.18;3.40;;;8.20;94.80;;;;;;5097468;28;20412;-79
2021/04/15 06:45:10;;;;;;;9.93;3.55;;;8.20;94.80;;;;;;5105805;28;20876;-73
2021/04/15 06:47:52;;;;;;;11.70;5.90;;;8.20;95.20;;;;;;5095322;28;20426;-73
2021/04/15 06:50:32;;;;;;;8.90;3.45;;;8.30;95.40;;;;;;5086106;28;20487;-74
2021/04/15 06:53:15;;;;;;;9.45;3.97;;;8.30;95.00;;;;;;5091222;28;20408;-73
2021/04/15 06:55:57;;;;;;;8.38;3.70;;;8.20;95.30;;;;;;5084095;28;20424;-72
2021/04/15 06:58:48;;;;;;;10.05;3.80;;;8.30;95.60;;;;;;5106975;28;20904;-72
2021/04/15 07:01:39;;;;;;;11.60;3.40;;;8.30;95.80;;;;;;5079966;28;20906;-74
2021/04/15 07:04:13;;;;;;;8.38;3.30;;;8.30;95.40;;;;;;5100236;28;20433;-75
2021/04/15 07:06:50;;;;;;;7.75;3.10;;;8.30;95.40;;;;;;5100887;28;20515;-75
2021/04/15 07:09:44;;;;;;;9.00;3.28;;;8.30;95.60;;;;;;5085861;28;21043;-76
2021/04/15 07:12:38;;;;;;;8.15;3.38;;;8.40;95.60;;;;;;5069755;28;21028;-74
2021/04/15 07:15:14;;;;;;;7.93;3.30;;;8.40;95.50;;;;;;5094394;28;20435;-73
2021/04/15 07:17:56;;;;;;;6.93;3.43;;;8.40;95.30;;;;;;5087689;28;20937;-75
2021/04/15 07:20:54;;;;;;;6.90;3.50;;;8.40;95.00;;;;;;5090999;28;20459;-75
2021/04/15 07:24:03;;;;;;;6.88;3.58;;;8.40;95.20;;;;;;5099719;28;20985;-74
2021/04/15 07:26:49;;;;;;;6.30;3.70;;;8.40;95.20;;;;;;5092441;28;20418;-74
2021/04/15 07:29:40;;;;;;;7.28;3.30;;;8.40;94.90;;;;;;5102587;28;20414;-73
2021/04/15 07:32:47;;;;;;;10.23;3.65;;;8.50;95.10;;;;;;5079971;28;20413;-74
2021/04/15 07:35:30;;;;;;;7.10;3.28;;;8.60;95.00;;;;;;5074945;28;20421;-72
2021/04/15 07:38:36;;;;;;;6.28;3.05;;;8.60;94.60;;;;;;5106505;28;20908;-74
2021/04/15 07:41:25;;;;;;;6.93;3.10;;;8.70;95.00;;;;;;5099794;28;20417;-73
2021/04/15 07:44:29;;;;;;;7.97;3.30;;;8.80;93.40;;;;;;5096895;28;20410;-75
2021/04/15 07:47:37;;;;;;;6.43;2.97;;;8.80;93.40;;;;;;5098957;28;20420;-74
2021/04/15 07:50:30;;;;;;;8.32;3.00;;;8.80;93.20;;;;;;5081665;28;20467;-74
2021/04/15 07:53:28;;;;;;;7.65;3.25;;;8.80;93.10;;;;;;5082307;28;20457;-74
2021/04/15 07:56:23;;;;;;;6.50;2.80;;;8.80;93.40;;;;;;5108161;28;20418;-74
2021/04/15 07:59:01;;;;;;;6.15;2.42;;;8.80;93.20;;;;;;5104263;28;20912;-74
2021/04/15 08:02:02;;;;;;;10.10;2.72;;;8.80;92.60;;;;;;5104018;28;20973;-74
2021/04/15 08:05:04;;;;;;;5.47;2.70;;;8.90;92.70;;;;;;5061197;28;20440;-74
2021/04/15 08:07:45;;;;;;;5.37;2.63;;;9.00;92.30;;;;;;5103476;28;20417;-74
2021/04/15 08:10:32;;;;;;;7.88;2.80;;;9.00;91.90;;;;;;5102561;28;20983;-76
2021/04/15 08:13:46;;;;;;;8.15;2.65;;;9.00;92.10;;;;;;5102554;28;20745;-75
2021/04/15 08:16:33;;;;;;;6.03;2.67;;;9.10;90.70;;;;;;5008705;28;20803;-75
2021/04/15 08:19:16;;;;;;;4.50;2.30;;;9.10;90.20;;;;;;5099307;28;20436;-75
2021/04/15 08:21:48;;;;;;;9.50;2.60;;;9.20;90.00;;;;;;5103576;28;20840;-75
2021/04/15 08:24:34;;;;;;;4.82;1.75;;;9.30;90.50;;;;;;5094741;28;20503;-75
2021/04/15 08:27:37;;;;;;;5.03;1.23;;;9.40;88.00;;;;;;5093283;28;20441;-74
2021/04/15 08:30:23;;;;;;;5.53;2.85;;;9.50;83.30;;;;;;5102145;28;20416;-75
2021/04/15 08:32:59;;;;;;;7.13;2.70;;;9.70;84.60;;;;;;5085057;28;20414;-74
2021/04/15 08:35:36;;;;;;;5.55;1.55;;;9.90;86.50;;;;;;5099020;28;20432;-73
2021/04/15 08:38:14;;;;;;;3.22;1.30;;;10.00;80.80;;;;;;5104518;28;20415;-75
2021/04/15 08:40:49;;;;;;;5.13;1.30;;;10.00;76.80;;;;;;5102350;28;20418;-75
2021/04/15 08:43:33;;;;;;;7.18;1.67;;;10.00;77.40;;;;;;5097483;28;20410;-75
2021/04/15 08:46:10;;;;;;;6.75;1.90;;;10.10;78.60;;;;;;5101093;28;20420;-74
2021/04/15 08:48:50;;;;;;;4.40;1.55;;;10.20;78.30;;;;;;5098572;28;20903;-75
2021/04/15 08:51:43;;;;;;;4.82;1.70;;;10.30;76.30;;;;;;5099566;28;20414;-74
2021/04/15 08:54:46;;;;;;;5.97;1.52;;;10.30;74.70;;;;;;5100376;28;20460;-76
2021/04/15 08:57:29;;;;;;;5.40;1.40;;;10.30;75.10;;;;;;5029963;28;20472;-74
2021/04/15 09:00:05;;;;;;;7.55;1.65;;;10.30;73.90;;;;;;5074354;28;20418;-75
2021/04/15 09:02:36;;;;;;;5.85;1.70;;;10.20;74.10;;;;;;5099955;28;20770;-75
2021/04/15 09:05:12;;;;;;;4.75;1.70;;;10.20;74.80;;;;;;5096737;28;20901;-75
2021/04/15 09:07:47;;;;;;;5.90;1.70;;;10.20;73.40;;;;;;5105580;28;20494;-74
2021/04/15 09:10:23;;;;;;;6.90;1.80;;;10.10;74.00;;;;;;5099581;28;20403;-74
2021/04/15 09:13:21;;;;;;;6.35;1.80;;;10.10;73.50;;;;;;5107484;28;20851;-74
2021/04/15 09:16:00;;;;;;;7.40;1.77;;;10.00;74.80;;;;;;5102971;28;20410;-74
2021/04/15 09:18:33;;;;;;;5.65;1.73;;;10.00;75.30;;;;;;5102733;28;20413;-75
2021/04/15 09:21:17;;;;;;;6.20;1.85;;;10.10;75.00;;;;;;5102460;28;20449;-74
2021/04/15 09:23:51;;;;;;;3.53;1.20;;;10.10;74.30;;;;;;5106711;28;20435;-75
2021/04/15 09:26:29;;;;;;;6.03;1.60;;;10.10;71.60;;;;;;5081960;28;20429;-74
2021/04/15 09:29:08;;;;;;;6.90;1.43;;;10.00;70.80;;;;;;5097381;28;20407;-75
2021/04/15 09:31:50;;;;;;;7.60;1.60;;;10.00;72.30;;;;;;5092644;28;20414;-74
2021/04/15 09:34:59;;;;;;;6.07;1.60;;;10.10;71.60;;;;;;5096781;28;20422;-73
2021/04/15 09:37:56;;;;;;;6.53;1.60;;;10.10;70.60;;;;;;5096651;28;20420;-75
2021/04/15 09:40:31;;;;;;;4.60;1.52;;;10.10;69.70;;;;;;5097532;28;20424;-74
2021/04/15 09:43:04;;;;;;;5.25;1.52;;;10.10;69.80;;;;;;5099092;28;20479;-74
2021/04/15 09:45:45;;;;;;;9.43;1.95;;;10.10;70.80;;;;;;5090740;28;20455;-74
2021/04/15 09:48:36;;;;;;;4.77;1.67;;;10.10;70.80;;;;;;5093336;28;20542;-74
2021/04/15 09:51:10;;;;;;;6.13;1.50;;;10.10;71.60;;;;;;5084561;28;20424;-74
2021/04/15 09:53:46;;;;;;;5.30;1.52;;;10.20;69.30;;;;;;5097041;28;20476;-74
2021/04/15 09:56:36;;;;;;;5.63;1.60;;;10.30;68.20;;;;;;5097934;28;20941;-74
2021/04/15 09:59:15;;;;;;;7.78;1.90;;;10.30;66.10;;;;;;5105077;28;20439;-73
2021/04/15 10:01:47;;;;;;;6.75;2.10;;;10.30;66.10;;;;;;5107843;28;20880;-73
2021/04/15 10:04:23;;;;;;;6.57;2.15;;;10.40;67.40;;;;;;5080908;28;20832;-74
2021/04/15 10:06:53;;;;;;;6.47;2.03;;;10.40;67.30;;;;;;5094981;28;20470;-73
2021/04/15 10:09:35;;;;;;;5.72;1.80;;;10.50;66.80;;;;;;5079803;28;20448;-75
2021/04/15 10:12:09;;;;;;;6.90;2.30;;;10.60;68.40;;;;;;5106311;28;20412;-73
2021/04/15 10:14:59;;;;;;;7.40;2.00;;;10.70;67.70;;;;;;5092866;28;20537;-74
2021/04/15 10:17:38;;;;;;;5.25;1.75;;;10.80;66.80;;;;;;5093016;28;20790;-75
2021/04/15 10:20:35;;;;;;;7.37;2.43;;;10.90;66.90;;;;;;5104378;28;20504;-74
2021/04/15 10:23:28;;;;;;;10.30;2.15;;;11.10;67.40;;;;;;5101339;28;20418;-73
2021/04/15 10:25:58;;;;;;;6.43;2.20;;;11.40;67.70;;;;;;5095290;28;20410;-74
2021/04/15 10:28:48;;;;;;;5.72;2.00;;;11.60;67.10;;;;;;5095535;28;20421;-73
2021/04/15 10:31:43;;;;;;;7.20;2.20;;;11.80;66.30;;;;;;5092857;28;20417;-76
2021/04/15 10:34:55;;;;;;;7.30;2.50;;;12.10;65.00;;;;;;5083451;28;20416;-74
2021/04/15 10:37:42;;;;;;;7.53;2.03;;;12.30;64.30;;;;;;5097705;28;20528;-74
2021/04/15 10:40:35;;;;;;;8.05;2.20;;;12.50;63.90;;;;;;5109538;28;20461;-74
2021/04/15 10:43:42;;;;;;;7.20;2.30;;;12.80;64.40;;;;;;5086928;28;20420;-75
2021/04/15 10:46:32;;;;;;;5.40;2.40;;;12.90;61.60;;;;;;5097915;28;20814;-75
2021/04/15 10:49:08;;;;;;;7.57;2.20;;;13.10;60.00;;;;;;5092115;28;20410;-76
2021/04/15 10:51:40;;;;;;;9.25;2.75;;;13.10;59.20;;;;;;5098801;28;20408;-74
2021/04/15 10:54:23;;;;;;;9.30;2.77;;;13.10;58.80;;;;;;5103108;28;20489;-74
2021/04/15 10:56:52;;;;;;;6.80;2.60;;;13.10;59.40;;;;;;5079801;28;20523;-75
2021/04/15 10:59:35;;;;;;;6.32;2.40;;;13.00;59.10;;;;;;5102522;28;20412;-74
2021/04/15 11:02:21;;;;;;;6.03;2.60;;;12.90;58.80;;;;;;5110002;28;20488;-75
2021/04/15 11:04:49;;;;;;;8.50;2.75;;;12.90;59.80;;;;;;5068528;28;20420;-74
2021/04/15 11:07:19;;;;;;;7.75;2.80;;;12.90;60.70;;;;;;5095098;28;20429;-73
2021/04/15 11:09:47;;;;;;;8.20;2.85;;;12.90;59.70;;;;;;5092721;28;20424;-74
2021/04/15 11:12:27;;;;;;;5.75;2.50;;;12.90;58.70;;;;;;5076719;28;20425;-73
2021/04/15 11:15:19;;;;;;;4.75;2.47;;;13.00;59.00;;;;;;5073805;28;20425;-74
2021/04/15 11:17:47;;;;;;;8.07;2.35;;;13.00;58.60;;;;;;5092253;28;20407;-74
2021/04/15 11:20:22;;;;;;;6.68;2.40;;;13.00;57.70;;;;;;5095386;28;20421;-74
2021/04/15 11:22:55;;;;;;;6.65;2.03;;;13.00;57.80;;;;;;5095304;28;20890;-74
2021/04/15 11:25:24;;;;;;;5.07;2.10;;;13.00;57.60;;;;;;5103475;28;20775;-76
2021/04/15 11:27:52;;;;;;;7.07;2.40;;;13.00;57.10;;;;;;5097105;28;20401;-75
2021/04/15 11:30:44;;;;;;;5.60;2.05;;;13.00;56.60;;;;;;5099767;28;20425;-73
2021/04/15 11:33:29;;;;;;;4.78;2.33;;;13.00;56.00;;;;;;5105317;28;20456;-73
2021/04/15 11:36:04;;;;;;;6.45;2.30;;;12.90;55.80;;;;;;5094769;28;20428;-75
2021/04/15 11:38:31;;;;;;;6.32;2.47;;;12.90;57.40;;;;;;5093451;28;20435;-75
2021/04/15 11:40:58;;;;;;;8.32;2.80;;;12.80;57.50;;;;;;5103641;28;21208;-75
2021/04/15 11:43:31;;;;;;;7.95;2.80;;;12.90;57.90;;;;;;5101431;28;20422;-75
2021/04/15 11:46:17;;;;;;;6.85;2.42;;;13.00;57.20;;;;;;5105051;28;20835;-75
2021/04/15 11:48:45;;;;;;;4.57;2.25;;;13.00;55.70;;;;;;5106131;28;20400;-74
2021/04/15 11:51:18;;;;;;;8.02;2.70;;;13.10;55.80;;;;;;5104624;28;20452;-74
2021/04/15 11:53:50;;;;;;;8.18;2.80;;;13.10;55.60;;;;;;5110582;28;20884;-74
2021/04/15 11:56:33;;;;;;;4.60;2.40;;;13.30;56.20;;;;;;5079107;28;20414;-74
2021/04/15 11:59:16;;;;;;;5.55;2.30;;;13.40;55.00;;;;;;5100785;28;20853;-74
2021/04/15 12:01:45;;;;;;;8.20;2.22;;;13.60;52.00;;;;;;5098755;28;20622;-74
2021/04/15 12:04:16;;;;;;;9.00;2.67;;;13.70;50.90;;;;;;5098114;28;20409;-75
2021/04/15 12:06:48;;;;;;;6.97;2.67;;;13.80;51.70;;;;;;5105249;28;20415;-75
2021/04/15 12:09:18;;;;;;;6.45;2.72;;;14.00;53.10;;;;;;5104435;28;20888;-74
2021/04/15 12:11:54;;;;;;;8.07;2.67;;;14.10;53.00;;;;;;5100246;28;20413;-73
2021/04/15 12:14:21;;;;;;;7.03;2.60;;;14.20;51.40;;;;;;5105371;28;20570;-74
2021/04/15 12:16:58;;;;;;;6.78;2.65;;;14.20;51.00;;;;;;5084298;28;20442;-74
2021/04/15 12:19:37;;;;;;;8.27;2.80;;;14.10;51.30;;;;;;5101926;28;20445;-74
2021/04/15 12:22:12;;;;;;;6.68;2.70;;;14.00;50.30;;;;;;5103063;28;20796;-74
2021/04/15 12:24:44;;;;;;;6.43;2.60;;;14.00;50.20;;;;;;5098495;28;20973;-74
2021/04/15 12:27:17;;;;;;;8.02;3.30;;;13.90;50.80;;;;;;5092010;28;20500;-74
2021/04/15 12:29:48;;;;;;;6.15;2.65;;;13.90;51.40;;;;;;5104557;28;20422;-74
2021/04/15 12:32:23;;;;;;;7.53;2.90;;;13.90;51.10;;;;;;5096344;28;20458;-74
2021/04/15 12:34:59;;;;;;;8.57;3.80;;;13.90;50.50;;;;;;5098203;28;20544;-74
2021/04/15 12:37:30;;;;;;;5.70;3.05;;;14.10;51.60;;;;;;5105312;28;20481;-74
2021/04/15 12:40:17;;;;;;;5.83;2.90;;;14.30;50.80;;;;;;5102873;28;20445;-73
2021/04/15 12:42:45;;;;;;;7.17;2.60;;;14.50;50.20;;;;;;5104807;28;20912;-75
2021/04/15 12:45:20;;;;;;;6.00;2.30;;;14.60;48.70;;;;;;5097486;28;20488;-74
2021/04/15 12:47:48;;;;;;;5.68;2.50;;;14.60;47.60;;;;;;5094659;28;20504;-74
2021/04/15 12:50:15;;;;;;;4.32;2.42;;;14.60;46.70;;;;;;5107608;28;20790;-74
2021/04/15 12:52:42;;;;;;;7.50;2.90;;;14.60;47.20;;;;;;5079324;28;20413;-74
2021/04/15 12:55:15;;;;;;;5.47;2.83;;;14.60;47.70;;;;;;5086727;28;20417;-74
2021/04/15 12:57:42;;;;;;;7.63;2.72;;;14.60;48.40;;;;;;5101586;28;20509;-74
2021/04/15 13:00:11;;;;;;;9.00;2.70;;;14.70;49.50;;;;;;5073594;28;20440;-74
2021/04/15 13:02:38;;;;;;;6.35;2.30;;;14.80;47.50;;;;;;5100765;28;20423;-74
2021/04/15 13:05:10;;;;;;;5.40;2.40;;;15.00;45.70;;;;;;5095584;28;20416;-73
2021/04/15 13:07:38;;;;;;;4.95;2.42;;;15.30;46.30;;;;;;5099002;28;20505;-73
2021/04/15 13:10:37;;;;;;;5.22;2.45;;;15.60;45.20;;;;;;5077160;28;20921;-75
2021/04/15 13:13:20;;;;;;;6.88;2.50;;;16.10;45.20;;;;;;5100008;28;20458;-75
2021/04/15 13:15:47;;;;;;;5.17;2.43;;;16.50;44.40;;;;;;5098378;28;20427;-74
2021/04/15 13:18:42;;;;;;;4.68;2.45;;;16.90;44.00;;;;;;5100903;28;20429;-74
2021/04/15 13:21:23;;;;;;;5.15;2.40;;;17.30;40.90;;;;;;5042793;28;20535;-74
2021/04/15 13:23:50;;;;;;;4.13;2.47;;;17.50;40.00;;;;;;5104368;28;20500;-74
2021/04/15 13:26:40;;;;;;;11.70;2.70;;;17.60;40.50;;;;;;5104984;28;20412;-75
2021/04/15 13:29:19;;;;;;;6.03;2.30;;;17.50;38.40;;;;;;5098078;28;20423;-75
2021/04/15 13:31:49;;;;;;;5.53;2.53;;;17.50;38.50;;;;;;5096398;28;20405;-73
2021/04/15 13:34:19;;;;;;;5.30;2.53;;;17.40;39.30;;;;;;5101179;28;20422;-73
2021/04/15 13:36:48;;;;;;;6.95;2.75;;;17.50;39.90;;;;;;5099737;28;20414;-75
2021/04/15 13:39:42;;;;;;;6.25;2.70;;;17.50;39.40;;;;;;5103321;28;20448;-74